sensor_id;sensor_type;location;lat;lon;timestamp;P1;durP1;ratioP1;P2;durP2;ratioP2
9823;SDS011;4951;50.778;7.196;2024-03-08T00:01:21;20.67;;;16.80;;
9823;SDS011;4951;50.778;7.196;2024-03-08T00:03:48;21.20;;;16.33;;
9823;SDS011;4951;50.778;7.196;2024-03-08T00:06:16;20.97;;;16.40;;
9823;SDS011;4951;50.778;7.196;2024-03-08T00:08:43;21.63;;;17.63;;
9823;SDS011;4951;50.778;7.196;2024-03-08T00:11:11;20.10;;;17.43;;
9823;SDS011;4951;50.778;7.196;2024-03-08T00:13:39;22.60;;;17.63;;
9823;SDS011;4951;50.778;7.196;2024-03-08T00:16:07;23.37;;;18.00;;
9823;SDS011;4951;50.778;7.196;2024-03-08T00:18:34;20.27;;;17.20;;
9823;SDS011;4951;50.778;7.196;2024-03-08T00:21:01;23.60;;;17.57;;
9823;SDS011;4951;50.778;7.196;2024-03-08T00:23:29;21.83;;;17.77;;
9823;SDS011;4951;50.778;7.196;2024-03-08T00:25:58;21.27;;;17.23;;
9823;SDS011;4951;50.778;7.196;2024-03-08T00:28:26;22.20;;;18.03;;
9823;SDS011;4951;50.778;7.196;2024-03-08T00:30:54;22.07;;;17.47;;
9823;SDS011;4951;50.778;7.196;2024-03-08T00:33:21;23.73;;;17.73;;
9823;SDS011;4951;50.778;7.196;2024-03-08T00:35:48;21.40;;;16.57;;
9823;SDS011;4951;50.778;7.196;2024-03-08T00:38:15;20.47;;;17.27;;
9823;SDS011;4951;50.778;7.196;2024-03-08T00:40:44;21.60;;;17.67;;
9823;SDS011;4951;50.778;7.196;2024-03-08T00:43:11;19.70;;;16.87;;
9823;SDS011;4951;50.778;7.196;2024-03-08T00:45:38;24.13;;;16.67;;
9823;SDS011;4951;50.778;7.196;2024-03-08T00:48:09;21.33;;;16.87;;
9823;SDS011;4951;50.778;7.196;2024-03-08T00:50:36;23.00;;;18.33;;
9823;SDS011;4951;50.778;7.196;2024-03-08T00:53:03;22.33;;;17.43;;
9823;SDS011;4951;50.778;7.196;2024-03-08T00:55:31;23.90;;;16.27;;
9823;SDS011;4951;50.778;7.196;2024-03-08T00:57:58;21.67;;;17.30;;
9823;SDS011;4951;50.778;7.196;2024-03-08T01:00:25;21.47;;;17.27;;
9823;SDS011;4951;50.778;7.196;2024-03-08T01:02:53;20.40;;;17.63;;
9823;SDS011;4951;50.778;7.196;2024-03-08T01:05:21;20.97;;;17.67;;
9823;SDS011;4951;50.778;7.196;2024-03-08T01:07:49;21.60;;;16.97;;
9823;SDS011;4951;50.778;7.196;2024-03-08T01:10:17;18.83;;;15.33;;
9823;SDS011;4951;50.778;7.196;2024-03-08T01:12:44;20.50;;;16.37;;
9823;SDS011;4951;50.778;7.196;2024-03-08T01:15:11;25.63;;;17.20;;
9823;SDS011;4951;50.778;7.196;2024-03-08T01:17:38;24.67;;;18.43;;
9823;SDS011;4951;50.778;7.196;2024-03-08T01:20:06;21.10;;;18.03;;
9823;SDS011;4951;50.778;7.196;2024-03-08T01:22:37;23.23;;;18.20;;
9823;SDS011;4951;50.778;7.196;2024-03-08T01:25:05;21.70;;;17.30;;
9823;SDS011;4951;50.778;7.196;2024-03-08T01:27:33;23.30;;;17.07;;
9823;SDS011;4951;50.778;7.196;2024-03-08T01:30:02;20.70;;;16.87;;
9823;SDS011;4951;50.778;7.196;2024-03-08T01:32:30;22.80;;;18.40;;
9823;SDS011;4951;50.778;7.196;2024-03-08T01:34:57;24.17;;;17.97;;
9823;SDS011;4951;50.778;7.196;2024-03-08T01:37:24;21.93;;;17.00;;
9823;SDS011;4951;50.778;7.196;2024-03-08T01:39:56;20.70;;;17.50;;
9823;SDS011;4951;50.778;7.196;2024-03-08T01:42:23;21.97;;;17.37;;
9823;SDS011;4951;50.778;7.196;2024-03-08T01:44:50;20.97;;;17.40;;
9823;SDS011;4951;50.778;7.196;2024-03-08T01:47:16;23.63;;;18.43;;
9823;SDS011;4951;50.778;7.196;2024-03-08T01:49:48;22.70;;;17.23;;
9823;SDS011;4951;50.778;7.196;2024-03-08T01:52:16;21.17;;;16.03;;
9823;SDS011;4951;50.778;7.196;2024-03-08T01:54:47;23.07;;;18.23;;
9823;SDS011;4951;50.778;7.196;2024-03-08T01:57:16;21.80;;;17.80;;
9823;SDS011;4951;50.778;7.196;2024-03-08T01:59:43;22.73;;;17.23;;
9823;SDS011;4951;50.778;7.196;2024-03-08T02:02:10;23.23;;;17.40;;
9823;SDS011;4951;50.778;7.196;2024-03-08T02:04:41;20.57;;;17.60;;
9823;SDS011;4951;50.778;7.196;2024-03-08T02:07:08;23.93;;;18.23;;
9823;SDS011;4951;50.778;7.196;2024-03-08T02:09:35;22.27;;;17.60;;
9823;SDS011;4951;50.778;7.196;2024-03-08T02:12:02;24.67;;;18.60;;
9823;SDS011;4951;50.778;7.196;2024-03-08T02:14:34;22.73;;;17.13;;
9823;SDS011;4951;50.778;7.196;2024-03-08T02:17:01;21.10;;;17.43;;
9823;SDS011;4951;50.778;7.196;2024-03-08T02:19:30;23.70;;;17.70;;
9823;SDS011;4951;50.778;7.196;2024-03-08T02:21:59;22.93;;;18.70;;
9823;SDS011;4951;50.778;7.196;2024-03-08T02:24:29;21.03;;;16.50;;
9823;SDS011;4951;50.778;7.196;2024-03-08T02:26:56;24.50;;;17.80;;
9823;SDS011;4951;50.778;7.196;2024-03-08T02:29:23;20.17;;;16.10;;
9823;SDS011;4951;50.778;7.196;2024-03-08T02:31:51;21.43;;;18.07;;
9823;SDS011;4951;50.778;7.196;2024-03-08T02:34:18;21.13;;;17.40;;
9823;SDS011;4951;50.778;7.196;2024-03-08T02:36:45;24.07;;;18.73;;
9823;SDS011;4951;50.778;7.196;2024-03-08T02:39:13;23.47;;;18.93;;
9823;SDS011;4951;50.778;7.196;2024-03-08T02:41:40;22.13;;;18.47;;
9823;SDS011;4951;50.778;7.196;2024-03-08T02:44:08;22.90;;;17.47;;
9823;SDS011;4951;50.778;7.196;2024-03-08T02:46:37;20.87;;;17.33;;
9823;SDS011;4951;50.778;7.196;2024-03-08T02:49:04;22.73;;;16.80;;
9823;SDS011;4951;50.778;7.196;2024-03-08T02:51:33;24.40;;;19.03;;
9823;SDS011;4951;50.778;7.196;2024-03-08T02:54:00;25.93;;;19.47;;
9823;SDS011;4951;50.778;7.196;2024-03-08T02:56:30;23.77;;;18.97;;
9823;SDS011;4951;50.778;7.196;2024-03-08T02:59:00;23.10;;;18.57;;
9823;SDS011;4951;50.778;7.196;2024-03-08T03:01:28;23.07;;;18.73;;
9823;SDS011;4951;50.778;7.196;2024-03-08T03:03:55;23.10;;;19.03;;
9823;SDS011;4951;50.778;7.196;2024-03-08T03:06:22;21.43;;;17.57;;
9823;SDS011;4951;50.778;7.196;2024-03-08T03:08:49;23.13;;;18.90;;
9823;SDS011;4951;50.778;7.196;2024-03-08T03:11:16;22.67;;;17.40;;
9823;SDS011;4951;50.778;7.196;2024-03-08T03:13:44;24.33;;;18.63;;
9823;SDS011;4951;50.778;7.196;2024-03-08T03:16:16;26.00;;;19.30;;
9823;SDS011;4951;50.778;7.196;2024-03-08T03:18:44;22.40;;;18.70;;
9823;SDS011;4951;50.778;7.196;2024-03-08T03:21:11;23.67;;;18.87;;
9823;SDS011;4951;50.778;7.196;2024-03-08T03:23:39;24.10;;;18.83;;
9823;SDS011;4951;50.778;7.196;2024-03-08T03:26:07;23.67;;;18.60;;
9823;SDS011;4951;50.778;7.196;2024-03-08T03:28:36;23.60;;;18.23;;
9823;SDS011;4951;50.778;7.196;2024-03-08T03:31:06;23.77;;;18.03;;
9823;SDS011;4951;50.778;7.196;2024-03-08T03:33:33;24.63;;;18.90;;
9823;SDS011;4951;50.778;7.196;2024-03-08T03:36:01;23.07;;;18.20;;
9823;SDS011;4951;50.778;7.196;2024-03-08T03:38:30;23.80;;;18.03;;
9823;SDS011;4951;50.778;7.196;2024-03-08T03:40:57;24.00;;;18.13;;
9823;SDS011;4951;50.778;7.196;2024-03-08T03:43:31;23.07;;;17.33;;
9823;SDS011;4951;50.778;7.196;2024-03-08T03:45:58;24.97;;;19.33;;
9823;SDS011;4951;50.778;7.196;2024-03-08T03:48:27;23.93;;;16.57;;
9823;SDS011;4951;50.778;7.196;2024-03-08T03:50:54;25.67;;;19.73;;
9823;SDS011;4951;50.778;7.196;2024-03-08T03:53:21;23.27;;;18.97;;
9823;SDS011;4951;50.778;7.196;2024-03-08T03:55:48;24.47;;;19.13;;
9823;SDS011;4951;50.778;7.196;2024-03-08T03:58:15;22.53;;;18.47;;
9823;SDS011;4951;50.778;7.196;2024-03-08T04:00:47;24.03;;;20.03;;
9823;SDS011;4951;50.778;7.196;2024-03-08T04:03:14;27.53;;;18.37;;
9823;SDS011;4951;50.778;7.196;2024-03-08T04:05:43;24.30;;;19.40;;
9823;SDS011;4951;50.778;7.196;2024-03-08T04:08:10;23.27;;;18.00;;
9823;SDS011;4951;50.778;7.196;2024-03-08T04:10:37;25.03;;;18.30;;
9823;SDS011;4951;50.778;7.196;2024-03-08T04:13:06;24.57;;;18.80;;
9823;SDS011;4951;50.778;7.196;2024-03-08T04:15:34;22.50;;;18.83;;
9823;SDS011;4951;50.778;7.196;2024-03-08T04:18:03;24.77;;;18.23;;
9823;SDS011;4951;50.778;7.196;2024-03-08T04:20:30;23.20;;;19.50;;
9823;SDS011;4951;50.778;7.196;2024-03-08T04:22:59;23.43;;;19.63;;
9823;SDS011;4951;50.778;7.196;2024-03-08T04:25:26;26.97;;;20.47;;
9823;SDS011;4951;50.778;7.196;2024-03-08T04:27:53;27.50;;;19.83;;
9823;SDS011;4951;50.778;7.196;2024-03-08T04:30:20;25.73;;;18.83;;
9823;SDS011;4951;50.778;7.196;2024-03-08T04:32:47;24.40;;;18.60;;
9823;SDS011;4951;50.778;7.196;2024-03-08T04:35:15;25.77;;;19.60;;
9823;SDS011;4951;50.778;7.196;2024-03-08T04:37:42;23.83;;;17.63;;
9823;SDS011;4951;50.778;7.196;2024-03-08T04:40:11;24.50;;;19.40;;
9823;SDS011;4951;50.778;7.196;2024-03-08T04:42:39;26.57;;;20.63;;
9823;SDS011;4951;50.778;7.196;2024-03-08T04:45:08;22.40;;;17.70;;
9823;SDS011;4951;50.778;7.196;2024-03-08T04:47:36;28.03;;;20.43;;
9823;SDS011;4951;50.778;7.196;2024-03-08T04:50:03;24.17;;;19.57;;
9823;SDS011;4951;50.778;7.196;2024-03-08T04:52:31;26.53;;;19.67;;
9823;SDS011;4951;50.778;7.196;2024-03-08T04:54:58;26.77;;;18.80;;
9823;SDS011;4951;50.778;7.196;2024-03-08T04:57:26;22.97;;;18.17;;
9823;SDS011;4951;50.778;7.196;2024-03-08T04:59:53;25.80;;;20.33;;
9823;SDS011;4951;50.778;7.196;2024-03-08T05:02:20;22.50;;;18.07;;
9823;SDS011;4951;50.778;7.196;2024-03-08T05:04:48;25.17;;;19.33;;
9823;SDS011;4951;50.778;7.196;2024-03-08T05:07:16;23.80;;;18.37;;
9823;SDS011;4951;50.778;7.196;2024-03-08T05:09:43;29.07;;;20.70;;
9823;SDS011;4951;50.778;7.196;2024-03-08T05:12:16;22.77;;;18.93;;
9823;SDS011;4951;50.778;7.196;2024-03-08T05:14:49;22.83;;;17.73;;
9823;SDS011;4951;50.778;7.196;2024-03-08T05:17:16;25.63;;;20.50;;
9823;SDS011;4951;50.778;7.196;2024-03-08T05:19:43;26.63;;;21.20;;
9823;SDS011;4951;50.778;7.196;2024-03-08T05:22:10;23.63;;;19.57;;
9823;SDS011;4951;50.778;7.196;2024-03-08T05:24:36;26.10;;;20.10;;
9823;SDS011;4951;50.778;7.196;2024-03-08T05:27:04;25.73;;;20.23;;
9823;SDS011;4951;50.778;7.196;2024-03-08T05:29:31;27.53;;;20.70;;
9823;SDS011;4951;50.778;7.196;2024-03-08T05:31:59;25.10;;;19.63;;
9823;SDS011;4951;50.778;7.196;2024-03-08T05:34:27;27.63;;;21.40;;
9823;SDS011;4951;50.778;7.196;2024-03-08T05:36:54;25.37;;;19.83;;
9823;SDS011;4951;50.778;7.196;2024-03-08T05:39:23;25.10;;;19.00;;
9823;SDS011;4951;50.778;7.196;2024-03-08T05:41:50;26.73;;;19.60;;
9823;SDS011;4951;50.778;7.196;2024-03-08T05:44:18;25.73;;;21.03;;
9823;SDS011;4951;50.778;7.196;2024-03-08T05:46:45;29.83;;;21.47;;
9823;SDS011;4951;50.778;7.196;2024-03-08T05:49:14;27.77;;;20.47;;
9823;SDS011;4951;50.778;7.196;2024-03-08T05:51:41;25.63;;;19.93;;
9823;SDS011;4951;50.778;7.196;2024-03-08T05:54:08;25.67;;;20.03;;
9823;SDS011;4951;50.778;7.196;2024-03-08T05:56:37;26.53;;;21.13;;
9823;SDS011;4951;50.778;7.196;2024-03-08T05:59:06;25.30;;;20.43;;
9823;SDS011;4951;50.778;7.196;2024-03-08T06:01:33;27.10;;;21.33;;
9823;SDS011;4951;50.778;7.196;2024-03-08T06:04:02;29.93;;;21.87;;
9823;SDS011;4951;50.778;7.196;2024-03-08T06:06:31;25.77;;;20.00;;
9823;SDS011;4951;50.778;7.196;2024-03-08T06:08:58;27.00;;;21.83;;
9823;SDS011;4951;50.778;7.196;2024-03-08T06:11:25;28.77;;;22.23;;
9823;SDS011;4951;50.778;7.196;2024-03-08T06:13:53;27.47;;;21.17;;
9823;SDS011;4951;50.778;7.196;2024-03-08T06:16:25;26.50;;;22.00;;
9823;SDS011;4951;50.778;7.196;2024-03-08T06:18:54;27.27;;;21.10;;
9823;SDS011;4951;50.778;7.196;2024-03-08T06:21:22;25.70;;;20.23;;
9823;SDS011;4951;50.778;7.196;2024-03-08T06:23:53;27.97;;;21.67;;
9823;SDS011;4951;50.778;7.196;2024-03-08T06:26:22;28.47;;;20.57;;
9823;SDS011;4951;50.778;7.196;2024-03-08T06:28:50;26.57;;;20.20;;
9823;SDS011;4951;50.778;7.196;2024-03-08T06:31:17;27.87;;;21.00;;
9823;SDS011;4951;50.778;7.196;2024-03-08T06:33:45;26.43;;;20.47;;
9823;SDS011;4951;50.778;7.196;2024-03-08T06:36:12;27.27;;;21.37;;
9823;SDS011;4951;50.778;7.196;2024-03-08T06:38:39;28.33;;;22.27;;
9823;SDS011;4951;50.778;7.196;2024-03-08T06:41:09;26.23;;;20.57;;
9823;SDS011;4951;50.778;7.196;2024-03-08T06:43:40;24.63;;;21.00;;
9823;SDS011;4951;50.778;7.196;2024-03-08T06:46:08;29.30;;;22.70;;
9823;SDS011;4951;50.778;7.196;2024-03-08T06:48:35;28.00;;;21.70;;
9823;SDS011;4951;50.778;7.196;2024-03-08T06:51:03;26.73;;;21.37;;
9823;SDS011;4951;50.778;7.196;2024-03-08T06:53:31;26.37;;;19.80;;
9823;SDS011;4951;50.778;7.196;2024-03-08T06:56:00;25.47;;;18.97;;
9823;SDS011;4951;50.778;7.196;2024-03-08T06:58:28;26.90;;;22.00;;
9823;SDS011;4951;50.778;7.196;2024-03-08T07:00:55;28.20;;;21.13;;
9823;SDS011;4951;50.778;7.196;2024-03-08T07:03:25;28.87;;;21.03;;
9823;SDS011;4951;50.778;7.196;2024-03-08T07:05:54;28.00;;;20.60;;
9823;SDS011;4951;50.778;7.196;2024-03-08T07:08:23;26.70;;;21.27;;
9823;SDS011;4951;50.778;7.196;2024-03-08T07:10:52;25.57;;;20.83;;
9823;SDS011;4951;50.778;7.196;2024-03-08T07:13:19;30.90;;;22.47;;
9823;SDS011;4951;50.778;7.196;2024-03-08T07:15:47;24.67;;;20.23;;
9823;SDS011;4951;50.778;7.196;2024-03-08T07:18:14;29.97;;;21.97;;
9823;SDS011;4951;50.778;7.196;2024-03-08T07:20:41;28.67;;;21.43;;
9823;SDS011;4951;50.778;7.196;2024-03-08T07:23:09;26.73;;;21.87;;
9823;SDS011;4951;50.778;7.196;2024-03-08T07:25:36;30.07;;;21.50;;
9823;SDS011;4951;50.778;7.196;2024-03-08T07:28:04;25.10;;;20.53;;
9823;SDS011;4951;50.778;7.196;2024-03-08T07:30:33;26.00;;;21.20;;
9823;SDS011;4951;50.778;7.196;2024-03-08T07:33:28;27.97;;;21.63;;
9823;SDS011;4951;50.778;7.196;2024-03-08T07:35:56;25.90;;;21.00;;
9823;SDS011;4951;50.778;7.196;2024-03-08T07:38:23;27.10;;;21.30;;
9823;SDS011;4951;50.778;7.196;2024-03-08T07:40:50;28.57;;;20.10;;
9823;SDS011;4951;50.778;7.196;2024-03-08T07:43:17;25.73;;;19.17;;
9823;SDS011;4951;50.778;7.196;2024-03-08T07:45:44;24.27;;;20.43;;
9823;SDS011;4951;50.778;7.196;2024-03-08T07:48:12;30.60;;;21.40;;
9823;SDS011;4951;50.778;7.196;2024-03-08T07:50:40;28.27;;;20.47;;
9823;SDS011;4951;50.778;7.196;2024-03-08T07:53:08;26.73;;;21.00;;
9823;SDS011;4951;50.778;7.196;2024-03-08T07:55:35;28.93;;;21.23;;
9823;SDS011;4951;50.778;7.196;2024-03-08T07:58:02;23.97;;;19.90;;
9823;SDS011;4951;50.778;7.196;2024-03-08T08:00:30;27.90;;;21.17;;
9823;SDS011;4951;50.778;7.196;2024-03-08T08:02:57;25.90;;;19.83;;
9823;SDS011;4951;50.778;7.196;2024-03-08T08:05:24;24.27;;;20.40;;
9823;SDS011;4951;50.778;7.196;2024-03-08T08:07:54;24.77;;;20.60;;
9823;SDS011;4951;50.778;7.196;2024-03-08T08:10:21;25.13;;;21.67;;
9823;SDS011;4951;50.778;7.196;2024-03-08T08:12:50;26.47;;;20.30;;
9823;SDS011;4951;50.778;7.196;2024-03-08T08:15:17;23.93;;;19.83;;
9823;SDS011;4951;50.778;7.196;2024-03-08T08:17:44;25.33;;;19.60;;
9823;SDS011;4951;50.778;7.196;2024-03-08T08:20:15;25.53;;;19.90;;
9823;SDS011;4951;50.778;7.196;2024-03-08T08:22:43;22.70;;;18.67;;
9823;SDS011;4951;50.778;7.196;2024-03-08T08:25:12;23.97;;;20.10;;
9823;SDS011;4951;50.778;7.196;2024-03-08T08:27:40;25.33;;;19.73;;
9823;SDS011;4951;50.778;7.196;2024-03-08T08:30:09;23.90;;;19.10;;
9823;SDS011;4951;50.778;7.196;2024-03-08T08:32:36;22.10;;;17.67;;
9823;SDS011;4951;50.778;7.196;2024-03-08T08:35:04;21.70;;;17.60;;
9823;SDS011;4951;50.778;7.196;2024-03-08T08:37:33;24.13;;;18.67;;
9823;SDS011;4951;50.778;7.196;2024-03-08T08:40:01;23.90;;;18.70;;
9823;SDS011;4951;50.778;7.196;2024-03-08T08:42:37;25.50;;;19.50;;
9823;SDS011;4951;50.778;7.196;2024-03-08T08:45:05;24.07;;;19.87;;
9823;SDS011;4951;50.778;7.196;2024-03-08T08:47:34;24.13;;;18.60;;
9823;SDS011;4951;50.778;7.196;2024-03-08T08:50:01;22.03;;;17.57;;
9823;SDS011;4951;50.778;7.196;2024-03-08T08:52:29;23.93;;;17.27;;
9823;SDS011;4951;50.778;7.196;2024-03-08T08:54:57;22.57;;;17.13;;
9823;SDS011;4951;50.778;7.196;2024-03-08T08:57:24;21.40;;;16.63;;
9823;SDS011;4951;50.778;7.196;2024-03-08T08:59:53;20.90;;;16.93;;
9823;SDS011;4951;50.778;7.196;2024-03-08T09:02:22;21.53;;;17.13;;
9823;SDS011;4951;50.778;7.196;2024-03-08T09:04:51;21.00;;;17.83;;
9823;SDS011;4951;50.778;7.196;2024-03-08T09:07:18;22.30;;;17.40;;
9823;SDS011;4951;50.778;7.196;2024-03-08T09:09:47;20.53;;;16.77;;
9823;SDS011;4951;50.778;7.196;2024-03-08T09:12:14;16.17;;;12.80;;
9823;SDS011;4951;50.778;7.196;2024-03-08T09:14:41;16.50;;;13.47;;
9823;SDS011;4951;50.778;7.196;2024-03-08T09:17:10;15.37;;;12.90;;
9823;SDS011;4951;50.778;7.196;2024-03-08T09:19:37;15.87;;;13.30;;
9823;SDS011;4951;50.778;7.196;2024-03-08T09:22:05;15.80;;;12.63;;
9823;SDS011;4951;50.778;7.196;2024-03-08T09:24:32;14.37;;;12.23;;
9823;SDS011;4951;50.778;7.196;2024-03-08T09:26:59;16.37;;;13.17;;
9823;SDS011;4951;50.778;7.196;2024-03-08T09:29:26;14.77;;;12.27;;
9823;SDS011;4951;50.778;7.196;2024-03-08T09:31:54;14.17;;;12.67;;
9823;SDS011;4951;50.778;7.196;2024-03-08T09:34:22;14.90;;;12.40;;
9823;SDS011;4951;50.778;7.196;2024-03-08T09:36:49;15.23;;;12.43;;
9823;SDS011;4951;50.778;7.196;2024-03-08T09:39:17;15.43;;;11.70;;
9823;SDS011;4951;50.778;7.196;2024-03-08T09:41:45;13.83;;;12.00;;
9823;SDS011;4951;50.778;7.196;2024-03-08T09:44:13;13.43;;;11.77;;
9823;SDS011;4951;50.778;7.196;2024-03-08T09:46:41;14.43;;;11.97;;
9823;SDS011;4951;50.778;7.196;2024-03-08T09:49:08;15.20;;;11.87;;
9823;SDS011;4951;50.778;7.196;2024-03-08T09:51:38;14.93;;;11.47;;
9823;SDS011;4951;50.778;7.196;2024-03-08T09:54:06;13.33;;;11.43;;
9823;SDS011;4951;50.778;7.196;2024-03-08T09:56:34;13.67;;;11.23;;
9823;SDS011;4951;50.778;7.196;2024-03-08T09:59:02;13.10;;;10.93;;
9823;SDS011;4951;50.778;7.196;2024-03-08T10:01:58;12.60;;;11.30;;
9823;SDS011;4951;50.778;7.196;2024-03-08T10:04:27;12.63;;;11.33;;
9823;SDS011;4951;50.778;7.196;2024-03-08T10:06:57;11.47;;;10.17;;
9823;SDS011;4951;50.778;7.196;2024-03-08T10:09:24;12.80;;;10.90;;
9823;SDS011;4951;50.778;7.196;2024-03-08T10:11:53;13.33;;;11.03;;
9823;SDS011;4951;50.778;7.196;2024-03-08T10:14:23;12.43;;;11.00;;
9823;SDS011;4951;50.778;7.196;2024-03-08T10:16:51;13.37;;;10.50;;
9823;SDS011;4951;50.778;7.196;2024-03-08T10:19:19;11.70;;;10.50;;
9823;SDS011;4951;50.778;7.196;2024-03-08T10:21:47;12.47;;;11.00;;
9823;SDS011;4951;50.778;7.196;2024-03-08T10:24:16;12.50;;;10.10;;
9823;SDS011;4951;50.778;7.196;2024-03-08T10:26:43;12.87;;;10.80;;
9823;SDS011;4951;50.778;7.196;2024-03-08T10:29:11;12.00;;;10.60;;
9823;SDS011;4951;50.778;7.196;2024-03-08T10:31:42;11.97;;;10.67;;
9823;SDS011;4951;50.778;7.196;2024-03-08T10:34:10;12.37;;;10.87;;
9823;SDS011;4951;50.778;7.196;2024-03-08T10:36:37;13.73;;;10.63;;
9823;SDS011;4951;50.778;7.196;2024-03-08T10:39:07;12.67;;;11.33;;
9823;SDS011;4951;50.778;7.196;2024-03-08T10:41:44;13.73;;;11.67;;
9823;SDS011;4951;50.778;7.196;2024-03-08T10:44:23;11.57;;;10.17;;
9823;SDS011;4951;50.778;7.196;2024-03-08T10:47:02;11.80;;;10.60;;
9823;SDS011;4951;50.778;7.196;2024-03-08T10:49:31;17.87;;;10.47;;
9823;SDS011;4951;50.778;7.196;2024-03-08T10:52:04;14.37;;;10.57;;
9823;SDS011;4951;50.778;7.196;2024-03-08T10:54:34;10.70;;;9.60;;
9823;SDS011;4951;50.778;7.196;2024-03-08T10:57:09;13.23;;;10.93;;
9823;SDS011;4951;50.778;7.196;2024-03-08T10:59:38;11.70;;;10.50;;
9823;SDS011;4951;50.778;7.196;2024-03-08T11:02:08;12.47;;;11.00;;
9823;SDS011;4951;50.778;7.196;2024-03-08T11:04:38;11.83;;;9.93;;
9823;SDS011;4951;50.778;7.196;2024-03-08T11:07:11;12.03;;;10.83;;
9823;SDS011;4951;50.778;7.196;2024-03-08T11:09:42;12.17;;;10.80;;
9823;SDS011;4951;50.778;7.196;2024-03-08T11:12:22;11.80;;;10.53;;
9823;SDS011;4951;50.778;7.196;2024-03-08T11:14:52;12.93;;;11.53;;
9823;SDS011;4951;50.778;7.196;2024-03-08T11:20:11;12.50;;;10.87;;
9823;SDS011;4951;50.778;7.196;2024-03-08T11:22:42;13.03;;;11.30;;
9823;SDS011;4951;50.778;7.196;2024-03-08T11:28:16;12.53;;;11.00;;
9823;SDS011;4951;50.778;7.196;2024-03-08T11:30:44;14.17;;;11.37;;
9823;SDS011;4951;50.778;7.196;2024-03-08T11:33:13;12.50;;;11.20;;
9823;SDS011;4951;50.778;7.196;2024-03-08T11:35:42;12.53;;;10.23;;
9823;SDS011;4951;50.778;7.196;2024-03-08T11:38:11;12.03;;;10.63;;
9823;SDS011;4951;50.778;7.196;2024-03-08T11:40:40;12.13;;;10.83;;
9823;SDS011;4951;50.778;7.196;2024-03-08T11:43:08;12.53;;;10.47;;
9823;SDS011;4951;50.778;7.196;2024-03-08T11:45:37;11.97;;;10.40;;
9823;SDS011;4951;50.778;7.196;2024-03-08T11:48:06;12.50;;;11.07;;
9823;SDS011;4951;50.778;7.196;2024-03-08T11:50:33;12.03;;;10.73;;
9823;SDS011;4951;50.778;7.196;2024-03-08T11:53:01;12.10;;;10.67;;
9823;SDS011;4951;50.778;7.196;2024-03-08T11:55:29;10.90;;;9.80;;
9823;SDS011;4951;50.778;7.196;2024-03-08T11:58:01;11.63;;;10.47;;
9823;SDS011;4951;50.778;7.196;2024-03-08T12:00:28;11.60;;;10.50;;
9823;SDS011;4951;50.778;7.196;2024-03-08T12:03:05;11.83;;;10.63;;
9823;SDS011;4951;50.778;7.196;2024-03-08T12:05:35;11.40;;;9.87;;
9823;SDS011;4951;50.778;7.196;2024-03-08T12:08:04;12.17;;;10.27;;
9823;SDS011;4951;50.778;7.196;2024-03-08T12:10:34;11.23;;;9.13;;
9823;SDS011;4951;50.778;7.196;2024-03-08T12:13:02;11.33;;;10.20;;
9823;SDS011;4951;50.778;7.196;2024-03-08T12:15:36;10.53;;;9.43;;
9823;SDS011;4951;50.778;7.196;2024-03-08T12:18:09;9.77;;;8.77;;
9823;SDS011;4951;50.778;7.196;2024-03-08T12:20:38;10.77;;;9.67;;
9823;SDS011;4951;50.778;7.196;2024-03-08T12:23:14;10.80;;;9.70;;
9823;SDS011;4951;50.778;7.196;2024-03-08T12:25:41;10.87;;;9.73;;
9823;SDS011;4951;50.778;7.196;2024-03-08T12:28:09;12.03;;;8.87;;
9823;SDS011;4951;50.778;7.196;2024-03-08T12:30:44;9.50;;;8.60;;
9823;SDS011;4951;50.778;7.196;2024-03-08T12:33:18;10.57;;;8.80;;
9823;SDS011;4951;50.778;7.196;2024-03-08T12:35:50;9.50;;;8.60;;
9823;SDS011;4951;50.778;7.196;2024-03-08T12:38:20;9.90;;;8.50;;
9823;SDS011;4951;50.778;7.196;2024-03-08T12:40:50;9.90;;;8.90;;
9823;SDS011;4951;50.778;7.196;2024-03-08T12:43:22;10.30;;;8.83;;
9823;SDS011;4951;50.778;7.196;2024-03-08T12:45:49;9.90;;;8.90;;
9823;SDS011;4951;50.778;7.196;2024-03-08T12:48:18;9.50;;;8.50;;
9823;SDS011;4951;50.778;7.196;2024-03-08T12:50:46;9.87;;;8.37;;
9823;SDS011;4951;50.778;7.196;2024-03-08T12:53:16;9.13;;;8.03;;
9823;SDS011;4951;50.778;7.196;2024-03-08T12:55:43;9.00;;;8.10;;
9823;SDS011;4951;50.778;7.196;2024-03-08T12:58:10;8.90;;;8.00;;
9823;SDS011;4951;50.778;7.196;2024-03-08T13:00:37;10.17;;;9.07;;
9823;SDS011;4951;50.778;7.196;2024-03-08T13:03:08;9.40;;;8.40;;
9823;SDS011;4951;50.778;7.196;2024-03-08T13:05:37;9.53;;;8.53;;
9823;SDS011;4951;50.778;7.196;2024-03-08T13:08:07;9.07;;;7.60;;
9823;SDS011;4951;50.778;7.196;2024-03-08T13:10:37;9.77;;;8.77;;
9823;SDS011;4951;50.778;7.196;2024-03-08T13:13:05;9.67;;;8.67;;
9823;SDS011;4951;50.778;7.196;2024-03-08T13:15:32;8.90;;;8.00;;
9823;SDS011;4951;50.778;7.196;2024-03-08T13:17:59;8.87;;;7.83;;
9823;SDS011;4951;50.778;7.196;2024-03-08T13:20:26;8.60;;;6.97;;
9823;SDS011;4951;50.778;7.196;2024-03-08T13:22:55;10.63;;;8.80;;
9823;SDS011;4951;50.778;7.196;2024-03-08T13:25:24;9.00;;;8.10;;
9823;SDS011;4951;50.778;7.196;2024-03-08T13:27:51;9.03;;;8.13;;
9823;SDS011;4951;50.778;7.196;2024-03-08T13:30:21;8.60;;;7.70;;
9823;SDS011;4951;50.778;7.196;2024-03-08T13:32:51;9.77;;;8.87;;
9823;SDS011;4951;50.778;7.196;2024-03-08T13:35:19;9.87;;;8.90;;
9823;SDS011;4951;50.778;7.196;2024-03-08T13:37:49;9.70;;;8.80;;
9823;SDS011;4951;50.778;7.196;2024-03-08T13:40:19;12.47;;;8.90;;
9823;SDS011;4951;50.778;7.196;2024-03-08T13:42:46;29.42;;;10.10;;
9823;SDS011;4951;50.778;7.196;2024-03-08T13:45:14;12.03;;;8.77;;
9823;SDS011;4951;50.778;7.196;2024-03-08T13:47:43;10.43;;;8.70;;
9823;SDS011;4951;50.778;7.196;2024-03-08T13:50:11;9.47;;;7.77;;
9823;SDS011;4951;50.778;7.196;2024-03-08T13:52:39;9.00;;;7.78;;
9823;SDS011;4951;50.778;7.196;2024-03-08T13:55:06;8.75;;;7.85;;
9823;SDS011;4951;50.778;7.196;2024-03-08T13:57:35;14.02;;;8.13;;
9823;SDS011;4951;50.778;7.196;2024-03-08T14:00:03;11.55;;;8.50;;
9823;SDS011;4951;50.778;7.196;2024-03-08T14:02:38;17.13;;;8.45;;
9823;SDS011;4951;50.778;7.196;2024-03-08T14:05:11;8.82;;;7.93;;
9823;SDS011;4951;50.778;7.196;2024-03-08T14:07:39;9.13;;;8.23;;
9823;SDS011;4951;50.778;7.196;2024-03-08T14:10:07;8.00;;;7.28;;
9823;SDS011;4951;50.778;7.196;2024-03-08T14:12:36;8.95;;;7.97;;
9823;SDS011;4951;50.778;7.196;2024-03-08T14:15:03;8.93;;;8.02;;
9823;SDS011;4951;50.778;7.196;2024-03-08T14:17:32;8.85;;;8.05;;
9823;SDS011;4951;50.778;7.196;2024-03-08T14:19:59;9.13;;;8.27;;
9823;SDS011;4951;50.778;7.196;2024-03-08T14:22:26;9.32;;;8.40;;
9823;SDS011;4951;50.778;7.196;2024-03-08T14:24:53;8.90;;;7.68;;
9823;SDS011;4951;50.778;7.196;2024-03-08T14:27:21;9.20;;;8.18;;
9823;SDS011;4951;50.778;7.196;2024-03-08T14:29:50;8.75;;;7.85;;
9823;SDS011;4951;50.778;7.196;2024-03-08T14:32:17;9.07;;;7.82;;
9823;SDS011;4951;50.778;7.196;2024-03-08T14:34:45;8.93;;;8.02;;
9823;SDS011;4951;50.778;7.196;2024-03-08T14:37:13;8.07;;;7.28;;
9823;SDS011;4951;50.778;7.196;2024-03-08T14:39:40;12.68;;;7.50;;
9823;SDS011;4951;50.778;7.196;2024-03-08T14:42:09;8.90;;;8.02;;
9823;SDS011;4951;50.778;7.196;2024-03-08T14:44:38;10.63;;;8.23;;
9823;SDS011;4951;50.778;7.196;2024-03-08T14:47:07;8.40;;;7.30;;
9823;SDS011;4951;50.778;7.196;2024-03-08T14:49:36;10.35;;;8.13;;
9823;SDS011;4951;50.778;7.196;2024-03-08T14:52:04;8.52;;;7.72;;
9823;SDS011;4951;50.778;7.196;2024-03-08T14:54:51;9.20;;;8.30;;
9823;SDS011;4951;50.778;7.196;2024-03-08T14:57:18;9.23;;;8.32;;
9823;SDS011;4951;50.778;7.196;2024-03-08T14:59:45;9.13;;;7.93;;
9823;SDS011;4951;50.778;7.196;2024-03-08T15:02:13;10.32;;;8.48;;
9823;SDS011;4951;50.778;7.196;2024-03-08T15:04:42;10.93;;;7.72;;
9823;SDS011;4951;50.778;7.196;2024-03-08T15:07:18;9.98;;;8.70;;